createdAt,value
2024-01-12T00:00:59.979Z,69.39
2024-01-12T00:03:27.016Z,69.86
2024-01-12T00:05:54.231Z,69.61
2024-01-12T00:08:21.621Z,69.64
2024-01-12T00:10:48.768Z,69.82
2024-01-12T00:13:15.963Z,70.16
2024-01-12T00:15:45.554Z,70.48
2024-01-12T00:18:12.584Z,70.40
2024-01-12T00:20:39.704Z,70.23
2024-01-12T00:23:06.789Z,70.36
2024-01-12T00:25:33.832Z,70.16
2024-01-12T00:28:00.890Z,70.53
2024-01-12T00:30:28.259Z,70.77
2024-01-12T00:32:58.093Z,71.06
2024-01-12T00:35:25.664Z,70.86
2024-01-12T00:37:52.747Z,70.85
2024-01-12T00:40:19.749Z,70.95
2024-01-12T00:42:46.700Z,71.30
2024-01-12T00:45:13.865Z,71.25
2024-01-12T00:47:40.960Z,71.56
2024-01-12T00:50:11.448Z,71.20
2024-01-12T00:52:38.471Z,71.45
2024-01-12T00:55:06.347Z,71.30
2024-01-12T00:57:33.393Z,71.68
2024-01-12T01:00:00.557Z,72.27
2024-01-12T01:02:27.714Z,72.10
2024-01-12T01:04:54.851Z,71.74
2024-01-12T01:07:24.657Z,72.06
2024-01-12T01:09:51.822Z,72.24
2024-01-12T01:12:19.793Z,72.29
2024-01-12T01:14:46.979Z,72.04
2024-01-12T01:17:14.243Z,72.03
2024-01-12T01:19:41.434Z,71.82
2024-01-12T01:22:08.413Z,72.06
2024-01-12T01:24:38.015Z,71.88
2024-01-12T01:27:06.707Z,71.99
2024-01-12T01:29:33.846Z,72.18
2024-01-12T01:32:01.015Z,72.50
2024-01-12T01:34:28.211Z,72.25
2024-01-12T01:36:55.337Z,72.32
2024-01-12T01:39:22.385Z,72.07
2024-01-12T01:41:52.000Z,72.33
2024-01-12T01:44:19.090Z,72.23
2024-01-12T01:46:46.249Z,72.57
2024-01-12T01:49:13.560Z,72.57
2024-01-12T01:51:40.954Z,72.52
2024-01-12T01:54:08.546Z,72.56
2024-01-12T01:56:39.768Z,72.47
2024-01-12T01:59:09.596Z,72.53
2024-01-12T02:01:37.071Z,72.54
2024-01-12T02:04:04.547Z,72.65
2024-01-12T02:06:33.250Z,72.57
2024-01-12T02:09:01.595Z,72.38
2024-01-12T02:11:28.756Z,72.27
2024-01-12T02:13:55.823Z,72.35
2024-01-12T02:16:25.957Z,72.36
2024-01-12T02:18:53.087Z,72.31
2024-01-12T02:21:23.024Z,72.36
2024-01-12T02:23:50.105Z,72.38
2024-01-12T02:26:17.451Z,72.57
2024-01-12T02:28:44.828Z,72.41
2024-01-12T02:31:11.994Z,72.43
2024-01-12T02:33:39.094Z,72.29
2024-01-12T02:36:06.777Z,72.41
2024-01-12T02:38:36.601Z,72.12
2024-01-12T02:41:03.638Z,72.16
2024-01-12T02:43:30.701Z,72.42
2024-01-12T02:45:57.727Z,72.24
2024-01-12T02:48:24.939Z,72.53
2024-01-12T02:50:52.230Z,72.36
2024-01-12T02:53:19.880Z,72.43
2024-01-12T02:55:49.643Z,72.87
2024-01-12T02:58:16.673Z,72.57
2024-01-12T03:00:44.459Z,72.99
2024-01-12T03:03:11.577Z,72.51
2024-01-12T03:05:38.700Z,72.69
2024-01-12T03:08:06.269Z,72.89
2024-01-12T03:10:33.357Z,73.00
2024-01-12T03:13:03.003Z,72.91
2024-01-12T03:15:30.219Z,73.02
2024-01-12T03:17:57.764Z,72.99
2024-01-12T03:20:24.879Z,73.14
2024-01-12T03:22:53.096Z,72.96
2024-01-12T03:25:20.138Z,72.69
2024-01-12T03:27:47.160Z,72.75
2024-01-12T03:30:17.426Z,72.65
2024-01-12T03:32:44.693Z,73.05
2024-01-12T03:35:11.872Z,73.14
2024-01-12T03:37:38.962Z,72.86
2024-01-12T03:40:07.329Z,72.88
2024-01-12T03:42:34.371Z,72.91
2024-01-12T03:45:01.505Z,73.06
2024-01-12T03:47:31.342Z,73.20
2024-01-12T03:49:58.769Z,73.20
2024-01-12T03:52:25.929Z,73.05
2024-01-12T03:54:52.962Z,73.30
2024-01-12T03:57:20.168Z,73.83
2024-01-12T03:59:47.199Z,73.74
2024-01-12T04:02:15.153Z,73.80
2024-01-12T04:04:44.921Z,74.10
2024-01-12T04:07:12.114Z,74.24
2024-01-12T04:09:39.199Z,74.42
2024-01-12T04:12:07.379Z,74.36
2024-01-12T04:14:36.588Z,74.42
2024-01-12T04:17:04.392Z,74.69
2024-01-12T04:19:31.392Z,74.28
2024-01-12T04:22:01.013Z,74.44
2024-01-12T04:24:28.189Z,74.49
2024-01-12T04:26:55.490Z,74.59
2024-01-12T04:29:22.637Z,74.66
2024-01-12T04:31:49.775Z,74.47
2024-01-12T04:34:17.097Z,74.59
2024-01-12T04:36:44.220Z,74.61
2024-01-12T04:39:13.955Z,74.18
2024-01-12T04:41:41.004Z,74.32
2024-01-12T04:44:08.034Z,74.35
2024-01-12T04:46:35.036Z,74.19
2024-01-12T04:49:02.252Z,74.39
2024-01-12T04:51:29.832Z,74.36
2024-01-12T04:53:56.938Z,74.21
2024-01-12T04:56:26.605Z,74.08
2024-01-12T04:58:53.682Z,73.95
2024-01-12T05:01:20.776Z,73.64
2024-01-12T05:03:47.823Z,73.58
2024-01-12T05:06:14.976Z,73.60
2024-01-12T05:08:42.101Z,73.58
2024-01-12T05:11:09.212Z,73.96
2024-01-12T05:13:38.847Z,74.24
2024-01-12T05:16:06.159Z,73.94
2024-01-12T05:18:33.576Z,73.94
2024-01-12T05:21:00.868Z,73.99
2024-01-12T05:23:27.969Z,73.91
2024-01-12T05:25:56.647Z,74.22
2024-01-12T05:28:23.707Z,74.47
2024-01-12T05:30:53.460Z,74.46
2024-01-12T05:33:20.565Z,74.24
2024-01-12T05:35:47.652Z,73.84
2024-01-12T05:38:14.785Z,73.85
2024-01-12T05:40:41.890Z,74.25
2024-01-12T05:43:08.967Z,74.23
2024-01-12T05:45:35.996Z,74.19
2024-01-12T05:48:06.751Z,74.22
2024-01-12T05:50:33.953Z,74.65
2024-01-12T05:53:01.001Z,74.71
2024-01-12T05:55:28.042Z,74.59
2024-01-12T05:57:55.095Z,75.41
2024-01-12T06:00:22.147Z,75.36
2024-01-12T06:02:49.245Z,75.37
2024-01-12T06:05:19.128Z,75.08
2024-01-12T06:07:46.175Z,74.74
2024-01-12T06:10:13.167Z,74.73
2024-01-12T06:12:40.203Z,74.84
2024-01-12T06:15:08.144Z,74.84
2024-01-12T06:17:35.283Z,74.42
2024-01-12T06:20:02.393Z,74.48
2024-01-12T06:22:32.020Z,74.62
2024-01-12T06:24:59.083Z,74.47
2024-01-12T06:27:26.083Z,74.14
2024-01-12T06:29:53.115Z,74.23
2024-01-12T06:32:20.196Z,74.46
2024-01-12T06:34:47.326Z,74.69
2024-01-12T06:37:14.416Z,74.29
2024-01-12T06:39:44.094Z,74.39
2024-01-12T06:42:11.175Z,74.10
2024-01-12T06:44:40.687Z,73.77
2024-01-12T06:47:07.765Z,73.72
2024-01-12T06:49:34.791Z,73.76
2024-01-12T06:52:01.891Z,73.86
2024-01-12T06:54:28.966Z,73.42
2024-01-12T06:56:58.644Z,73.53
2024-01-12T06:59:25.755Z,73.64
2024-01-12T07:01:52.932Z,73.69
2024-01-12T07:04:20.018Z,73.57
2024-01-12T07:06:47.276Z,73.55
2024-01-12T07:09:14.522Z,73.60
2024-01-12T07:11:42.554Z,73.63
2024-01-12T07:14:13.438Z,74.00
2024-01-12T07:16:40.565Z,73.68
2024-01-12T07:19:08.453Z,73.76
2024-01-12T07:21:35.680Z,73.90
2024-01-12T07:24:04.206Z,73.78
2024-01-12T07:26:31.362Z,73.78
2024-01-12T07:28:59.404Z,73.84
2024-01-12T07:31:29.185Z,73.66
2024-01-12T07:33:56.347Z,73.77
2024-01-12T07:36:23.528Z,74.06
2024-01-12T07:38:50.659Z,73.43
2024-01-12T07:41:17.882Z,73.25
2024-01-12T07:43:45.107Z,72.97
2024-01-12T07:46:17.944Z,72.96
2024-01-12T07:48:47.745Z,73.24
2024-01-12T07:51:15.024Z,73.51
2024-01-12T07:53:42.299Z,73.74
2024-01-12T07:56:10.823Z,73.34
2024-01-12T07:58:37.921Z,73.43
2024-01-12T08:01:05.379Z,73.60
2024-01-12T08:03:32.800Z,73.67
2024-01-12T08:06:02.738Z,73.71
2024-01-12T08:08:29.944Z,73.68
2024-01-12T08:10:57.082Z,73.37
2024-01-12T08:13:24.421Z,73.33
2024-01-12T08:15:51.727Z,73.47
2024-01-12T08:18:19.016Z,73.50
2024-01-12T08:20:46.764Z,73.37
2024-01-12T08:23:16.474Z,73.42
2024-01-12T08:25:43.684Z,73.75
2024-01-12T08:28:10.798Z,73.35
2024-01-12T08:30:37.886Z,73.13
2024-01-12T08:33:05.574Z,72.98
2024-01-12T08:35:32.757Z,72.75
2024-01-12T08:37:59.917Z,72.70
2024-01-12T08:40:29.694Z,72.87
2024-01-12T08:42:56.852Z,73.47
2024-01-12T08:45:24.095Z,73.32
2024-01-12T08:47:51.461Z,73.33
2024-01-12T08:50:18.735Z,73.73
2024-01-12T08:52:45.909Z,73.61
2024-01-12T08:55:12.991Z,74.17
2024-01-12T08:57:42.730Z,74.16
2024-01-12T09:00:11.550Z,74.25
2024-01-12T09:02:38.788Z,74.28
2024-01-12T09:05:06.885Z,75.80
2024-01-12T09:07:34.016Z,76.35
2024-01-12T09:10:01.149Z,75.86
2024-01-12T09:12:28.235Z,75.73
2024-01-12T09:14:57.918Z,75.43
2024-01-12T09:17:25.144Z,75.04
2024-01-12T09:19:52.517Z,75.03
2024-01-12T09:22:19.733Z,74.42
2024-01-12T09:24:46.915Z,74.72
2024-01-12T09:27:14.128Z,74.67
2024-01-12T09:29:41.231Z,75.01
2024-01-12T09:32:11.097Z,75.16
2024-01-12T09:34:38.309Z,75.06
2024-01-12T09:37:05.624Z,75.05
2024-01-12T09:39:32.997Z,75.27
2024-01-12T09:42:01.927Z,75.49
2024-01-12T09:44:30.482Z,74.82
2024-01-12T09:46:59.379Z,75.03
2024-01-12T09:49:31.120Z,75.47
2024-01-12T09:51:59.865Z,75.07
2024-01-12T09:54:26.975Z,74.48
2024-01-12T09:56:54.631Z,74.26
2024-01-12T09:59:23.918Z,74.31
2024-01-12T10:01:51.251Z,74.62
2024-01-12T10:04:18.386Z,74.43
2024-01-12T10:06:48.229Z,74.68
2024-01-12T10:09:15.717Z,74.55
2024-01-12T10:11:42.904Z,74.43
2024-01-12T10:14:10.125Z,74.36
2024-01-12T10:16:37.327Z,74.39
2024-01-12T10:19:04.491Z,73.89
2024-01-12T10:21:39.204Z,73.70
2024-01-12T10:24:09.307Z,73.97
2024-01-12T10:26:36.590Z,73.94
2024-01-12T10:29:04.511Z,73.58
2024-01-12T10:31:31.870Z,73.34
2024-01-12T10:34:01.152Z,73.13
2024-01-12T10:36:29.319Z,73.20
2024-01-12T10:38:58.296Z,72.90
2024-01-12T10:41:29.938Z,73.00
2024-01-12T10:43:57.037Z,72.81
2024-01-12T10:46:34.385Z,72.83
2024-01-12T10:49:10.250Z,72.47
2024-01-12T10:51:40.243Z,73.04
2024-01-12T10:54:14.289Z,73.00
2024-01-12T10:56:46.198Z,72.44
2024-01-12T10:59:13.565Z,72.35
2024-01-12T11:01:42.258Z,72.06
2024-01-12T11:04:10.460Z,71.31
2024-01-12T11:06:39.645Z,71.31
2024-01-12T11:09:10.936Z,71.43
2024-01-12T11:11:50.757Z,71.08
2024-01-12T11:14:19.052Z,70.51
2024-01-12T11:16:46.290Z,70.46
2024-01-12T11:19:14.464Z,70.30
2024-01-12T11:21:42.223Z,69.80
2024-01-12T11:24:11.092Z,69.30
2024-01-12T11:26:38.677Z,69.12
2024-01-12T11:29:13.391Z,69.35
2024-01-12T11:31:49.694Z,69.36
2024-01-12T11:34:18.706Z,68.91
2024-01-12T11:36:46.081Z,69.22
2024-01-12T11:39:13.786Z,68.24
2024-01-12T11:41:45.363Z,67.67
2024-01-12T11:44:15.245Z,67.94
2024-01-12T11:46:42.740Z,67.23
2024-01-12T11:49:10.029Z,66.87
2024-01-12T11:51:37.097Z,66.77
2024-01-12T11:54:04.411Z,64.90
2024-01-12T11:56:31.515Z,64.70
2024-01-12T11:58:58.655Z,63.43
2024-01-12T12:01:28.444Z,63.11
2024-01-12T12:03:55.837Z,63.27
2024-01-12T12:06:23.136Z,63.61
2024-01-12T12:08:50.502Z,63.61
2024-01-12T12:11:17.533Z,63.89
2024-01-12T12:13:44.519Z,63.64
2024-01-12T12:16:11.601Z,62.60
2024-01-12T12:18:41.579Z,62.49
2024-01-12T12:21:09.939Z,61.80
2024-01-12T12:23:37.293Z,61.36
2024-01-12T12:26:05.338Z,60.99
2024-01-12T12:28:33.137Z,60.38
2024-01-12T12:31:00.236Z,59.99
2024-01-12T12:33:27.485Z,59.88
2024-01-12T12:36:10.391Z,59.87
2024-01-12T12:38:38.128Z,59.17
2024-01-12T12:41:07.496Z,59.25
2024-01-12T12:43:35.488Z,59.73
2024-01-12T12:46:02.648Z,59.39
2024-01-12T12:48:29.882Z,58.79
2024-01-12T12:50:57.088Z,59.51
2024-01-12T12:53:26.799Z,59.63
2024-01-12T12:55:54.066Z,60.84
2024-01-12T12:58:21.103Z,60.26
2024-01-12T13:00:48.347Z,61.23
2024-01-12T13:03:15.466Z,60.88
2024-01-12T13:05:42.539Z,61.36
2024-01-12T13:08:09.660Z,61.31
2024-01-12T13:10:39.360Z,62.16
2024-01-12T13:13:06.576Z,60.80
2024-01-12T13:15:33.843Z,59.94
2024-01-12T13:18:01.091Z,61.54
2024-01-12T13:20:28.264Z,61.78
2024-01-12T13:22:55.419Z,61.16
2024-01-12T13:25:22.475Z,60.25
2024-01-12T13:27:52.270Z,60.09
2024-01-12T13:30:19.694Z,59.79
2024-01-12T13:32:47.155Z,60.00
2024-01-12T13:35:14.476Z,59.86
2024-01-12T13:37:41.544Z,60.84
2024-01-12T13:40:09.764Z,61.32
2024-01-12T13:42:36.862Z,62.82
2024-01-12T13:45:07.263Z,62.51
2024-01-12T13:47:34.815Z,63.77
2024-01-12T13:50:02.064Z,63.82
2024-01-12T13:52:29.310Z,63.78
2024-01-12T13:54:56.334Z,64.04
2024-01-12T13:57:23.381Z,64.45
2024-01-12T13:59:50.532Z,64.39
2024-01-12T14:02:20.428Z,64.18
2024-01-12T14:04:56.553Z,64.84
2024-01-12T14:07:28.630Z,65.43
2024-01-12T14:09:55.919Z,66.18
2024-01-12T14:12:23.071Z,66.15
2024-01-12T14:14:50.493Z,66.12
2024-01-12T14:17:20.234Z,65.55
2024-01-12T14:19:47.522Z,65.93
2024-01-12T14:22:15.214Z,65.73
2024-01-12T14:24:42.309Z,65.94
2024-01-12T14:27:09.918Z,66.20
2024-01-12T14:29:37.558Z,66.72
2024-01-12T14:32:05.268Z,66.99
2024-01-12T14:34:34.983Z,67.00
2024-01-12T14:37:02.190Z,67.17
2024-01-12T14:39:29.373Z,67.34
2024-01-12T14:41:56.528Z,67.57
2024-01-12T14:44:23.729Z,67.90
2024-01-12T14:46:50.960Z,68.18
2024-01-12T14:49:18.182Z,68.24
2024-01-12T14:51:47.958Z,67.98
2024-01-12T14:54:15.608Z,68.16
2024-01-12T14:56:43.957Z,68.14
2024-01-12T14:59:11.177Z,67.95
2024-01-12T15:01:38.307Z,68.48
2024-01-12T15:04:14.723Z,69.34
2024-01-12T15:06:48.680Z,68.83
2024-01-12T15:09:19.604Z,69.06
2024-01-12T15:11:47.047Z,68.94
2024-01-12T15:14:15.155Z,68.77
2024-01-12T15:16:43.341Z,69.32
2024-01-12T15:19:10.790Z,68.98
2024-01-12T15:21:38.305Z,68.85
2024-01-12T15:24:08.157Z,68.93
2024-01-12T15:26:35.469Z,69.28
2024-01-12T15:29:02.654Z,69.62
2024-01-12T15:31:30.226Z,69.28
2024-01-12T15:33:57.805Z,69.89
2024-01-12T15:36:25.068Z,69.64
2024-01-12T15:38:52.136Z,69.67
2024-01-12T15:41:21.843Z,69.82
2024-01-12T15:43:48.873Z,70.26
2024-01-12T15:46:16.364Z,69.67
2024-01-12T15:48:43.779Z,70.49
2024-01-12T15:51:14.106Z,70.54
2024-01-12T15:53:41.313Z,70.78
2024-01-12T15:56:08.694Z,70.87
2024-01-12T15:58:38.938Z,70.76
2024-01-12T16:01:06.012Z,70.49
2024-01-12T16:03:33.176Z,70.12
2024-01-12T16:06:00.398Z,71.39
2024-01-12T16:08:27.545Z,71.51
2024-01-12T16:10:54.626Z,71.85
2024-01-12T16:13:21.661Z,71.52
2024-01-12T16:15:51.836Z,71.38
2024-01-12T16:18:19.195Z,70.97
2024-01-12T16:20:47.954Z,70.91
2024-01-12T16:23:15.176Z,71.25
2024-01-12T16:25:42.160Z,72.00
2024-01-12T16:28:09.204Z,71.88
2024-01-12T16:30:36.342Z,71.60
2024-01-12T16:33:06.448Z,71.27
2024-01-12T16:35:33.636Z,71.20
2024-01-12T16:38:00.868Z,71.49
2024-01-12T16:40:27.908Z,71.98
2024-01-12T16:42:54.932Z,71.58
2024-01-12T16:45:21.917Z,71.68
2024-01-12T16:47:49.354Z,71.85
2024-01-12T16:50:19.624Z,72.42
2024-01-12T16:52:46.780Z,72.44
2024-01-12T16:55:13.878Z,71.51
2024-01-12T16:57:41.086Z,71.54
2024-01-12T17:00:09.404Z,71.32
2024-01-12T17:02:36.585Z,70.96
2024-01-12T17:05:04.182Z,71.12
2024-01-12T17:07:33.802Z,71.27
2024-01-12T17:10:00.781Z,71.50
2024-01-12T17:12:27.826Z,71.74
2024-01-12T17:14:54.989Z,71.57
2024-01-12T17:17:26.559Z,71.81
2024-01-12T17:19:57.781Z,71.46
2024-01-12T17:22:24.991Z,71.10
2024-01-12T17:24:54.582Z,70.90
2024-01-12T17:27:21.579Z,70.97
2024-01-12T17:29:48.692Z,70.75
2024-01-12T17:32:16.623Z,71.29
2024-01-12T17:34:43.871Z,71.48
2024-01-12T17:37:11.151Z,70.84
2024-01-12T17:39:38.248Z,70.92
2024-01-12T17:42:08.168Z,70.89
2024-01-12T17:44:35.291Z,71.23
2024-01-12T17:47:02.359Z,71.21
2024-01-12T17:49:29.476Z,71.49
2024-01-12T17:51:56.715Z,72.01
2024-01-12T17:54:23.798Z,72.37
2024-01-12T17:56:50.872Z,72.61
2024-01-12T17:59:20.614Z,72.81
2024-01-12T18:01:47.748Z,73.43
2024-01-12T18:04:14.898Z,73.60
2024-01-12T18:06:42.192Z,74.05
2024-01-12T18:09:09.521Z,73.78
2024-01-12T18:11:36.695Z,73.31
2024-01-12T18:14:03.733Z,73.68
2024-01-12T18:16:33.374Z,73.58
2024-01-12T18:19:00.718Z,73.73
2024-01-12T18:21:27.954Z,74.21
2024-01-12T18:23:55.023Z,74.15
2024-01-12T18:26:22.061Z,74.05
2024-01-12T18:28:49.133Z,74.37
2024-01-12T18:31:16.208Z,74.97
2024-01-12T18:33:45.994Z,75.50
2024-01-12T18:36:13.329Z,75.39
2024-01-12T18:38:40.417Z,76.10
2024-01-12T18:41:07.724Z,76.79
2024-01-12T18:43:34.780Z,76.67
2024-01-12T18:46:01.792Z,76.89
2024-01-12T18:48:28.949Z,76.63
2024-01-12T18:50:58.829Z,76.48
2024-01-12T18:53:25.901Z,76.74
2024-01-12T18:55:52.984Z,76.75
2024-01-12T18:58:20.108Z,76.72
2024-01-12T19:00:47.395Z,76.77
2024-01-12T19:03:14.544Z,76.85
2024-01-12T19:05:41.882Z,76.77
2024-01-12T19:08:11.815Z,77.49
2024-01-12T19:10:39.320Z,77.69
2024-01-12T19:13:06.766Z,77.68
2024-01-12T19:15:33.748Z,77.44
2024-01-12T19:18:01.093Z,77.26
2024-01-12T19:20:28.224Z,77.24
2024-01-12T19:22:55.234Z,77.52
2024-01-12T19:25:24.856Z,77.94
2024-01-12T19:27:51.943Z,78.36
2024-01-12T19:30:19.122Z,78.26
2024-01-12T19:32:46.339Z,78.39
2024-01-12T19:35:13.548Z,78.48
2024-01-12T19:37:40.593Z,78.74
2024-01-12T19:40:08.832Z,78.78
2024-01-12T19:42:38.417Z,79.23
2024-01-12T19:45:06.652Z,79.04
2024-01-12T19:47:33.810Z,78.97
2024-01-12T19:50:01.123Z,79.54
2024-01-12T19:52:28.242Z,79.45
2024-01-12T19:54:55.239Z,79.74
2024-01-12T19:57:22.273Z,79.64
2024-01-12T19:59:51.999Z,79.79
2024-01-12T20:02:19.240Z,79.84
2024-01-12T20:04:48.203Z,79.79
2024-01-12T20:07:16.249Z,80.01
2024-01-12T20:09:43.354Z,80.10
2024-01-12T20:12:10.493Z,80.39
2024-01-12T20:14:37.541Z,80.58
2024-01-12T20:17:07.222Z,80.39
2024-01-12T20:19:34.706Z,80.26
2024-01-12T20:22:02.072Z,79.93
2024-01-12T20:24:29.208Z,80.23
2024-01-12T20:26:56.285Z,80.05
2024-01-12T20:29:23.354Z,80.21
2024-01-12T20:31:50.405Z,80.72
2024-01-12T20:34:20.267Z,80.95
2024-01-12T20:36:47.375Z,81.22
2024-01-12T20:39:14.411Z,80.80
2024-01-12T20:41:41.489Z,81.08
2024-01-12T20:44:08.611Z,81.68
2024-01-12T20:46:35.635Z,81.27
2024-01-12T20:49:02.916Z,81.13
2024-01-12T20:51:32.615Z,81.87
2024-01-12T20:53:59.909Z,81.95
2024-01-12T20:56:27.199Z,81.52
2024-01-12T20:58:55.594Z,81.83
2024-01-12T21:01:23.020Z,82.25
2024-01-12T21:03:50.175Z,82.38
2024-01-12T21:06:17.569Z,82.25
2024-01-12T21:08:47.454Z,82.48
2024-01-12T21:11:14.798Z,82.12
2024-01-12T21:13:41.810Z,81.93
2024-01-12T21:16:10.169Z,82.04
2024-01-12T21:18:37.531Z,82.36
2024-01-12T21:21:06.923Z,82.13
2024-01-12T21:23:34.213Z,82.29
2024-01-12T21:26:06.016Z,82.30
2024-01-12T21:28:33.106Z,81.93
2024-01-12T21:31:00.367Z,82.24
2024-01-12T21:33:27.594Z,81.99
2024-01-12T21:35:54.948Z,81.65
2024-01-12T21:38:22.246Z,81.77
2024-01-12T21:40:49.274Z,81.93
2024-01-12T21:43:19.004Z,81.87
2024-01-12T21:45:46.153Z,81.63
2024-01-12T21:48:13.371Z,81.24
2024-01-12T21:50:41.338Z,81.20
2024-01-12T21:53:09.011Z,81.89
2024-01-12T21:55:36.041Z,81.64
2024-01-12T21:58:03.050Z,81.66
2024-01-12T22:00:32.923Z,81.56
2024-01-12T22:03:00.203Z,81.95
2024-01-12T22:05:27.548Z,82.60
2024-01-12T22:07:54.643Z,82.63
2024-01-12T22:10:21.673Z,82.31
2024-01-12T22:12:48.725Z,81.11
2024-01-12T22:15:15.989Z,81.05
2024-01-12T22:17:45.784Z,80.93
2024-01-12T22:20:13.354Z,80.93
2024-01-12T22:22:40.896Z,81.14
2024-01-12T22:25:08.825Z,81.20
2024-01-12T22:27:35.871Z,81.26
2024-01-12T22:30:03.055Z,81.38
2024-01-12T22:32:30.150Z,81.27
2024-01-12T22:34:59.878Z,81.38
2024-01-12T22:37:26.956Z,81.63
2024-01-12T22:39:53.995Z,81.42
2024-01-12T22:42:21.053Z,81.37
2024-01-12T22:44:48.143Z,81.16
2024-01-12T22:47:15.319Z,81.20
2024-01-12T22:49:42.722Z,81.64
2024-01-12T22:52:12.515Z,81.78
2024-01-12T22:54:42.604Z,81.88
2024-01-12T22:57:09.872Z,82.05
2024-01-12T22:59:37.102Z,82.24
2024-01-12T23:02:04.559Z,81.89
2024-01-12T23:04:32.821Z,81.68
2024-01-12T23:06:59.890Z,81.67
2024-01-12T23:09:29.666Z,81.44
2024-01-12T23:11:56.725Z,81.43
2024-01-12T23:14:23.846Z,81.20
2024-01-12T23:16:51.161Z,81.38
2024-01-12T23:19:18.486Z,81.91
2024-01-12T23:21:45.682Z,82.41
2024-01-12T23:24:12.869Z,82.04
2024-01-12T23:26:42.613Z,82.34
2024-01-12T23:29:13.649Z,82.52
2024-01-12T23:31:40.880Z,82.13
2024-01-12T23:34:08.202Z,82.39
2024-01-12T23:36:35.428Z,82.33
2024-01-12T23:39:02.590Z,82.95
2024-01-12T23:41:29.765Z,82.98
2024-01-12T23:43:59.446Z,82.41
2024-01-12T23:46:26.687Z,81.83
2024-01-12T23:48:53.977Z,83.12
2024-01-12T23:51:21.236Z,82.60
2024-01-12T23:53:48.355Z,82.57
2024-01-12T23:56:15.537Z,82.04
2024-01-12T23:58:42.638Z,82.07
